createdAt,value
2023-03-26T00:01:05.689Z,91.65
2023-03-26T00:03:36.032Z,91.23
2023-03-26T00:06:12.681Z,90.52
2023-03-26T00:08:41.790Z,90.70
2023-03-26T00:11:12.015Z,89.99
2023-03-26T00:13:38.981Z,89.95
2023-03-26T00:16:06.721Z,89.90
2023-03-26T00:18:35.089Z,89.83
2023-03-26T00:21:05.025Z,90.00
2023-03-26T00:23:35.269Z,90.00
2023-03-26T00:26:03.461Z,89.90
2023-03-26T00:28:30.904Z,89.80
2023-03-26T00:31:02.428Z,90.27
2023-03-26T00:33:29.676Z,90.49
2023-03-26T00:35:58.725Z,90.70
2023-03-26T00:38:26.962Z,90.86
2023-03-26T00:40:54.086Z,90.73
2023-03-26T00:43:22.883Z,90.93
2023-03-26T00:45:54.835Z,90.61
2023-03-26T00:48:31.529Z,91.03
2023-03-26T00:51:10.379Z,90.92
2023-03-26T00:53:39.009Z,91.15
2023-03-26T00:56:06.672Z,90.93
2023-03-26T00:58:34.052Z,90.40
2023-03-26T01:01:04.350Z,89.67
2023-03-26T01:03:34.015Z,88.92
2023-03-26T01:06:08.213Z,89.04
2023-03-26T01:08:40.680Z,89.15
2023-03-26T01:11:18.689Z,89.53
2023-03-26T01:13:49.651Z,90.11
2023-03-26T01:16:26.557Z,90.35
2023-03-26T01:18:54.665Z,90.56
2023-03-26T01:21:28.717Z,91.31
2023-03-26T01:24:15.637Z,91.57
2023-03-26T01:26:57.658Z,92.10
2023-03-26T01:29:52.960Z,92.24
2023-03-26T01:32:48.697Z,92.33
2023-03-26T01:35:27.758Z,92.50
2023-03-26T01:37:58.602Z,91.76
2023-03-26T01:40:42.796Z,90.71
2023-03-26T01:43:33.568Z,90.42
2023-03-26T01:46:03.755Z,90.31
2023-03-26T01:48:36.186Z,89.86
2023-03-26T01:51:03.927Z,89.76
2023-03-26T01:53:32.800Z,90.37
2023-03-26T01:56:29.214Z,90.34
2023-03-26T01:59:07.425Z,90.48
2023-03-26T02:02:00.126Z,90.31
2023-03-26T02:04:37.674Z,90.36
2023-03-26T02:07:34.641Z,90.12
2023-03-26T02:10:10.578Z,89.68
2023-03-26T02:12:37.771Z,89.34
2023-03-26T02:15:05.846Z,89.27
2023-03-26T02:17:33.269Z,89.36
2023-03-26T02:20:05.746Z,89.33
2023-03-26T02:22:32.406Z,89.20
2023-03-26T02:24:58.857Z,88.60
2023-03-26T02:27:25.622Z,88.84
2023-03-26T02:29:52.233Z,88.97
2023-03-26T02:32:20.194Z,88.97
2023-03-26T02:34:47.283Z,89.33
2023-03-26T02:37:13.932Z,89.66
2023-03-26T02:39:40.436Z,89.99
2023-03-26T02:42:06.870Z,89.82
2023-03-26T02:44:33.457Z,89.71
2023-03-26T02:47:02.688Z,89.52
2023-03-26T02:49:29.140Z,89.60
2023-03-26T02:51:56.321Z,89.48
2023-03-26T02:54:23.622Z,89.03
2023-03-26T02:56:50.204Z,89.26
2023-03-26T02:59:16.945Z,89.33
2023-03-26T03:01:43.632Z,89.19
2023-03-26T03:04:11.968Z,89.24
2023-03-26T03:06:40.519Z,89.42
2023-03-26T03:09:11.266Z,89.22
2023-03-26T03:11:41.311Z,89.57
2023-03-26T03:14:07.928Z,89.27
2023-03-26T03:16:34.396Z,89.34
2023-03-26T03:19:01.951Z,89.35
2023-03-26T03:21:29.383Z,89.65
2023-03-26T03:24:00.150Z,89.35
2023-03-26T03:26:27.808Z,89.31
2023-03-26T03:28:56.584Z,89.55
2023-03-26T03:31:24.965Z,89.60
2023-03-26T03:33:52.165Z,89.11
2023-03-26T03:36:23.276Z,88.84
2023-03-26T03:38:51.302Z,88.39
2023-03-26T03:41:18.778Z,88.11
2023-03-26T03:43:45.814Z,86.57
2023-03-26T03:46:12.465Z,86.09
2023-03-26T03:48:39.206Z,85.00
2023-03-26T03:51:06.331Z,84.36
2023-03-26T03:53:36.906Z,83.21
2023-03-26T03:56:04.601Z,83.02
2023-03-26T03:58:31.221Z,82.88
2023-03-26T04:01:00.927Z,82.85
2023-03-26T04:03:33.879Z,83.04
2023-03-26T04:06:01.461Z,83.47
2023-03-26T04:08:28.060Z,83.66
2023-03-26T04:10:54.782Z,84.15
2023-03-26T04:13:21.656Z,84.77
2023-03-26T04:15:48.389Z,85.36
2023-03-26T04:18:15.122Z,85.98
2023-03-26T04:20:46.768Z,86.30
2023-03-26T04:23:18.633Z,87.53
2023-03-26T04:25:49.085Z,88.32
2023-03-26T04:28:42.386Z,89.03
2023-03-26T04:31:15.757Z,89.96
2023-03-26T04:33:48.793Z,90.50
2023-03-26T04:36:16.863Z,91.02
2023-03-26T04:38:45.940Z,91.09
2023-03-26T04:41:14.098Z,91.18
2023-03-26T04:43:42.552Z,91.53
2023-03-26T04:46:10.705Z,91.45
2023-03-26T04:48:38.748Z,91.77
2023-03-26T04:51:10.225Z,91.79
2023-03-26T04:53:37.147Z,91.45
2023-03-26T04:56:23.617Z,90.97
2023-03-26T04:58:51.818Z,90.79
2023-03-26T05:01:18.616Z,90.14
2023-03-26T05:03:46.050Z,89.68
2023-03-26T05:06:13.743Z,88.96
2023-03-26T05:08:42.033Z,88.50
2023-03-26T05:11:11.667Z,87.90
2023-03-26T05:13:39.552Z,86.89
2023-03-26T05:16:06.650Z,86.55
2023-03-26T05:18:33.467Z,86.44
2023-03-26T05:21:00.207Z,85.66
2023-03-26T05:23:26.980Z,85.57
2023-03-26T05:25:53.741Z,85.85
2023-03-26T05:28:24.338Z,85.91
2023-03-26T05:30:54.449Z,85.91
2023-03-26T05:33:22.709Z,86.41
2023-03-26T05:36:03.234Z,86.92
2023-03-26T05:38:31.035Z,86.83
2023-03-26T05:40:59.650Z,87.00
2023-03-26T05:43:26.930Z,86.75
2023-03-26T05:45:54.117Z,86.78
2023-03-26T05:48:21.713Z,86.71
2023-03-26T05:50:50.111Z,86.48
2023-03-26T05:53:18.264Z,86.57
2023-03-26T05:55:46.627Z,86.98
2023-03-26T05:58:13.969Z,86.87
2023-03-26T06:00:40.602Z,87.00
2023-03-26T06:03:12.609Z,86.56
2023-03-26T06:05:40.460Z,86.88
2023-03-26T06:08:07.872Z,86.62
2023-03-26T06:10:37.718Z,86.87
2023-03-26T06:13:04.401Z,86.79
2023-03-26T06:15:31.275Z,86.21
2023-03-26T06:17:57.882Z,86.25
2023-03-26T06:20:24.624Z,86.92
2023-03-26T06:22:52.036Z,87.02
2023-03-26T06:25:19.151Z,86.49
2023-03-26T06:27:45.957Z,86.38
2023-03-26T06:30:12.905Z,86.33
2023-03-26T06:32:39.592Z,86.37
2023-03-26T06:35:06.781Z,86.60
2023-03-26T06:37:33.900Z,86.04
2023-03-26T06:40:00.554Z,86.61
2023-03-26T06:43:06.678Z,86.14
2023-03-26T06:45:14.587Z,85.69
2023-03-26T06:47:41.524Z,85.57
2023-03-26T06:50:08.766Z,85.94
2023-03-26T06:52:35.511Z,85.61
2023-03-26T06:55:02.145Z,86.03
2023-03-26T06:57:28.649Z,85.61
2023-03-26T06:59:55.555Z,85.65
2023-03-26T07:02:22.247Z,84.32
2023-03-26T07:04:48.968Z,84.11
2023-03-26T07:07:15.769Z,83.57
2023-03-26T07:09:42.340Z,83.18
2023-03-26T07:12:10.058Z,83.20
2023-03-26T07:14:38.750Z,83.12
2023-03-26T07:17:05.730Z,82.13
2023-03-26T07:19:33.020Z,82.01
2023-03-26T07:22:00.193Z,81.82
2023-03-26T07:24:27.245Z,80.92
2023-03-26T07:27:08.143Z,81.27
2023-03-26T07:29:52.460Z,80.11
2023-03-26T07:32:34.147Z,80.12
2023-03-26T07:35:32.054Z,80.00
2023-03-26T07:38:31.394Z,80.30
2023-03-26T07:41:20.983Z,78.63
2023-03-26T07:44:12.247Z,77.44
2023-03-26T07:46:39.267Z,77.33
2023-03-26T07:49:06.307Z,77.40
2023-03-26T07:51:33.816Z,76.79
2023-03-26T07:54:00.908Z,76.54
2023-03-26T07:56:36.608Z,76.72
2023-03-26T07:59:43.854Z,76.71
2023-03-26T08:02:32.274Z,76.32
2023-03-26T08:05:19.757Z,76.10
2023-03-26T08:07:53.078Z,75.53
2023-03-26T08:10:42.354Z,74.67
2023-03-26T08:13:20.038Z,74.55
2023-03-26T08:16:05.547Z,74.17
2023-03-26T08:18:46.623Z,73.55
2023-03-26T08:21:22.934Z,73.26
2023-03-26T08:24:20.224Z,72.47
2023-03-26T08:26:59.558Z,72.04
2023-03-26T08:29:51.697Z,71.60
2023-03-26T08:32:19.995Z,70.46
2023-03-26T08:34:46.910Z,70.22
2023-03-26T08:37:13.411Z,69.48
2023-03-26T08:39:42.237Z,68.76
2023-03-26T08:42:40.147Z,68.24
2023-03-26T08:45:33.726Z,68.01
2023-03-26T08:48:17.451Z,67.27
2023-03-26T08:51:13.548Z,67.38
2023-03-26T08:53:56.312Z,66.34
2023-03-26T08:56:39.477Z,66.54
2023-03-26T08:59:31.000Z,66.23
2023-03-26T09:02:11.240Z,65.63
2023-03-26T09:04:53.928Z,65.54
2023-03-26T09:07:46.993Z,65.27
2023-03-26T09:10:19.550Z,65.23
2023-03-26T09:12:49.678Z,64.48
2023-03-26T09:16:16.748Z,63.21
2023-03-26T09:19:29.058Z,63.11
2023-03-26T09:22:26.692Z,63.30
2023-03-26T09:25:13.449Z,63.70
2023-03-26T09:27:50.945Z,63.17
2023-03-26T09:30:28.212Z,62.72
2023-03-26T09:33:31.482Z,63.25
2023-03-26T09:36:46.283Z,63.43
2023-03-26T09:39:46.972Z,63.83
2023-03-26T09:42:42.395Z,64.12
2023-03-26T09:45:18.096Z,65.05
2023-03-26T09:48:05.986Z,66.53
2023-03-26T09:50:42.417Z,67.33
2023-03-26T09:53:30.720Z,68.08
2023-03-26T09:56:11.821Z,68.82
2023-03-26T09:58:38.293Z,68.78
2023-03-26T10:01:14.559Z,69.47
2023-03-26T10:04:17.664Z,69.87
2023-03-26T10:06:54.287Z,70.12
2023-03-26T10:09:37.558Z,69.38
2023-03-26T10:12:36.852Z,68.42
2023-03-26T10:15:32.556Z,67.80
2023-03-26T10:18:29.662Z,67.55
2023-03-26T10:21:12.261Z,67.69
2023-03-26T10:23:45.286Z,67.48
2023-03-26T10:26:30.799Z,66.66
2023-03-26T10:29:16.372Z,66.43
2023-03-26T10:31:44.748Z,66.48
2023-03-26T10:34:44.892Z,66.62
2023-03-26T10:37:20.653Z,66.89
2023-03-26T10:40:20.250Z,65.50
2023-03-26T10:43:17.131Z,64.70
2023-03-26T10:45:46.785Z,65.67
2023-03-26T10:48:25.637Z,65.40
2023-03-26T10:51:04.259Z,65.31
2023-03-26T10:53:47.749Z,65.50
2023-03-26T10:56:35.489Z,65.69
2023-03-26T10:59:07.232Z,65.11
2023-03-26T11:01:55.933Z,65.87
2023-03-26T11:04:40.778Z,65.59
2023-03-26T11:07:30.939Z,65.28
2023-03-26T11:10:08.320Z,64.79
2023-03-26T11:12:34.816Z,65.10
2023-03-26T11:15:22.764Z,64.35
2023-03-26T11:18:07.836Z,64.06
2023-03-26T11:20:55.441Z,63.94
2023-03-26T11:24:04.895Z,62.29
2023-03-26T11:26:55.827Z,62.42
2023-03-26T11:29:57.381Z,61.68
2023-03-26T11:32:31.842Z,60.58
2023-03-26T11:35:06.084Z,60.04
2023-03-26T11:37:42.258Z,60.24
2023-03-26T11:40:20.208Z,58.74
2023-03-26T11:42:49.868Z,58.89
2023-03-26T11:45:21.020Z,57.91
2023-03-26T11:48:04.080Z,58.05
2023-03-26T11:50:35.721Z,57.96
2023-03-26T11:53:12.811Z,56.51
2023-03-26T11:55:44.353Z,56.37
2023-03-26T11:58:39.332Z,56.06
2023-03-26T12:01:17.360Z,56.82
2023-03-26T12:04:03.607Z,56.76
2023-03-26T12:06:30.263Z,57.13
2023-03-26T12:08:57.391Z,57.28
2023-03-26T12:11:33.219Z,56.57
2023-03-26T12:14:04.019Z,56.53
2023-03-26T12:16:30.616Z,56.51
2023-03-26T12:19:19.521Z,57.30
2023-03-26T12:21:51.833Z,56.83
2023-03-26T12:24:35.991Z,57.36
2023-03-26T12:27:24.890Z,57.64
2023-03-26T12:29:52.564Z,57.27
2023-03-26T12:32:19.179Z,58.10
2023-03-26T12:34:46.096Z,58.36
2023-03-26T12:37:35.731Z,58.42
2023-03-26T12:40:26.010Z,57.95
2023-03-26T12:44:56.639Z,58.13
2023-03-26T12:45:43.676Z,56.75
2023-03-26T12:48:13.249Z,56.38
2023-03-26T12:50:45.633Z,56.35
2023-03-26T12:53:46.376Z,56.04
2023-03-26T12:56:40.597Z,55.84
2023-03-26T12:59:21.951Z,55.09
2023-03-26T13:02:29.441Z,54.92
2023-03-26T13:05:05.735Z,55.48
2023-03-26T13:07:53.716Z,56.36
2023-03-26T13:10:26.664Z,56.55
2023-03-26T13:13:31.058Z,56.44
2023-03-26T13:16:03.834Z,57.91
2023-03-26T13:18:36.505Z,57.70
2023-03-26T13:21:22.989Z,57.76
2023-03-26T13:24:05.970Z,58.23
2023-03-26T13:27:02.044Z,59.14
2023-03-26T13:29:46.869Z,60.43
2023-03-26T13:32:34.526Z,60.82
2023-03-26T13:35:16.471Z,61.02
2023-03-26T13:38:01.829Z,61.21
2023-03-26T13:40:53.233Z,61.60
2023-03-26T13:43:46.563Z,61.85
2023-03-26T13:46:43.064Z,61.78
2023-03-26T13:49:13.149Z,62.01
2023-03-26T13:52:03.034Z,62.09
2023-03-26T13:54:44.802Z,61.30
2023-03-26T13:57:21.606Z,61.90
2023-03-26T13:59:50.352Z,61.49
2023-03-26T14:02:42.690Z,62.09
2023-03-26T14:05:48.854Z,61.88
2023-03-26T14:08:25.805Z,61.34
2023-03-26T14:10:56.362Z,61.21
2023-03-26T14:13:36.091Z,61.51
2023-03-26T14:16:24.267Z,62.05
2023-03-26T14:19:24.768Z,62.58
2023-03-26T14:22:01.934Z,62.58
2023-03-26T14:24:48.604Z,62.63
2023-03-26T14:27:38.317Z,62.58
2023-03-26T14:30:42.412Z,63.02
2023-03-26T14:33:38.663Z,63.30
2023-03-26T14:36:27.172Z,63.61
2023-03-26T14:39:26.413Z,64.23
2023-03-26T14:42:08.687Z,64.44
2023-03-26T14:44:50.644Z,63.12
2023-03-26T14:47:19.038Z,63.69
2023-03-26T14:50:22.732Z,64.10
2023-03-26T14:52:51.962Z,64.38
2023-03-26T14:55:56.793Z,63.97
2023-03-26T14:58:51.134Z,63.44
2023-03-26T15:01:23.653Z,62.77
2023-03-26T15:04:47.167Z,62.48
2023-03-26T15:07:41.934Z,62.25
2023-03-26T15:10:18.650Z,62.57
2023-03-26T15:13:03.678Z,61.88
2023-03-26T15:15:53.951Z,62.09
2023-03-26T15:18:24.948Z,62.41
2023-03-26T15:21:10.616Z,62.45
2023-03-26T15:24:25.466Z,62.57
2023-03-26T15:27:22.603Z,62.77
2023-03-26T15:30:12.384Z,62.65
2023-03-26T15:33:07.658Z,62.95
2023-03-26T15:35:38.051Z,62.59
2023-03-26T15:38:38.614Z,62.26
2023-03-26T15:41:18.035Z,62.39
2023-03-26T15:47:01.812Z,62.41
2023-03-26T15:49:55.177Z,62.83
2023-03-26T15:52:31.302Z,62.13
2023-03-26T15:55:31.400Z,62.39
2023-03-26T15:58:25.591Z,63.15
2023-03-26T16:01:03.991Z,63.51
2023-03-26T16:03:48.068Z,63.69
2023-03-26T16:06:36.741Z,63.24
2023-03-26T16:09:17.053Z,63.57
2023-03-26T16:12:04.371Z,63.27
2023-03-26T16:14:46.879Z,63.91
2023-03-26T16:17:17.813Z,64.31
2023-03-26T16:19:44.268Z,64.04
2023-03-26T16:22:42.536Z,64.22
2023-03-26T16:25:33.613Z,63.71
2023-03-26T16:28:22.879Z,63.85
2023-03-26T16:31:37.792Z,64.14
2023-03-26T16:34:07.136Z,63.65
2023-03-26T16:36:35.531Z,64.18
2023-03-26T16:39:11.582Z,64.18
2023-03-26T16:41:50.146Z,63.97
2023-03-26T16:44:38.638Z,64.32
2023-03-26T16:47:21.997Z,64.11
2023-03-26T16:50:08.644Z,64.08
2023-03-26T16:52:54.918Z,64.02
2023-03-26T16:55:46.955Z,64.00
2023-03-26T16:58:13.578Z,64.11
2023-03-26T17:01:06.408Z,63.73
2023-03-26T17:03:45.040Z,63.72
2023-03-26T17:06:33.802Z,64.32
2023-03-26T17:09:03.904Z,64.07
2023-03-26T17:11:56.571Z,64.34
2023-03-26T17:14:49.006Z,64.15
2023-03-26T17:17:38.026Z,63.44
2023-03-26T17:20:32.788Z,63.67
2023-03-26T17:23:28.463Z,64.31
2023-03-26T17:26:07.174Z,64.35
2023-03-26T17:29:00.319Z,64.80
2023-03-26T17:31:58.548Z,65.19
2023-03-26T17:34:50.466Z,65.21
2023-03-26T17:37:16.979Z,65.53
2023-03-26T17:39:43.526Z,65.89
2023-03-26T17:42:16.148Z,66.06
2023-03-26T17:44:53.084Z,66.36
2023-03-26T17:47:26.770Z,66.40
2023-03-26T17:50:00.544Z,66.65
2023-03-26T17:52:48.080Z,66.45
2023-03-26T17:55:27.803Z,66.23
2023-03-26T17:57:57.844Z,65.96
2023-03-26T18:00:29.207Z,65.29
2023-03-26T18:03:01.369Z,64.30
2023-03-26T18:05:30.857Z,64.76
2023-03-26T18:08:02.041Z,64.27
2023-03-26T18:11:26.838Z,63.98
2023-03-26T18:14:08.785Z,63.28
2023-03-26T18:16:46.069Z,63.60
2023-03-26T18:19:22.849Z,63.58
2023-03-26T18:21:52.485Z,63.19
2023-03-26T18:24:41.256Z,63.30
2023-03-26T18:27:14.779Z,64.19
2023-03-26T18:29:56.372Z,64.95
2023-03-26T18:32:33.383Z,64.70
2023-03-26T18:35:13.596Z,64.67
2023-03-26T18:37:44.085Z,64.74
2023-03-26T18:40:20.996Z,65.24
2023-03-26T18:42:57.815Z,65.13
2023-03-26T18:45:37.448Z,65.73
2023-03-26T18:48:22.958Z,65.44
2023-03-26T18:51:06.712Z,65.33
2023-03-26T18:53:41.157Z,65.71
2023-03-26T18:56:38.919Z,66.10
2023-03-26T18:59:28.383Z,66.44
2023-03-26T19:01:57.837Z,66.14
2023-03-26T19:04:27.197Z,65.90
2023-03-26T19:06:56.182Z,65.88
2023-03-26T19:09:31.514Z,66.31
2023-03-26T19:12:16.216Z,66.41
2023-03-26T19:15:13.664Z,66.55
2023-03-26T19:17:44.794Z,66.83
2023-03-26T19:20:40.120Z,67.25
2023-03-26T19:23:08.845Z,67.42
2023-03-26T19:25:47.896Z,67.60
2023-03-26T19:28:19.800Z,67.92
2023-03-26T19:30:46.614Z,68.14
2023-03-26T19:33:20.400Z,68.10
2023-03-26T19:36:02.144Z,68.49
2023-03-26T19:38:37.700Z,68.75
2023-03-26T19:41:04.598Z,69.00
2023-03-26T19:43:31.161Z,69.27
2023-03-26T19:46:01.233Z,69.72
2023-03-26T19:48:46.589Z,70.14
2023-03-26T19:51:26.147Z,70.54
2023-03-26T19:53:55.979Z,70.81
2023-03-26T19:56:22.928Z,71.04
2023-03-26T19:58:52.603Z,71.18
2023-03-26T20:01:21.022Z,71.02
2023-03-26T20:03:50.507Z,71.13
2023-03-26T20:06:22.189Z,71.56
2023-03-26T20:08:55.428Z,71.86
2023-03-26T20:11:36.672Z,71.80
2023-03-26T20:14:12.643Z,71.78
2023-03-26T20:16:40.065Z,71.69
2023-03-26T20:19:08.769Z,72.04
2023-03-26T20:21:35.433Z,71.99
2023-03-26T20:24:02.085Z,72.34
2023-03-26T20:26:28.640Z,72.37
2023-03-26T20:28:55.106Z,72.73
2023-03-26T20:31:25.006Z,72.89
2023-03-26T20:33:53.443Z,72.93
2023-03-26T20:36:33.215Z,73.20
2023-03-26T20:39:05.543Z,73.49
2023-03-26T20:41:32.732Z,73.45
2023-03-26T20:43:59.209Z,73.77
2023-03-26T20:46:30.979Z,73.83
2023-03-26T20:48:59.650Z,73.81
2023-03-26T20:51:28.790Z,74.05
2023-03-26T20:53:56.084Z,74.38
2023-03-26T20:56:23.421Z,74.40
2023-03-26T20:59:03.725Z,74.35
2023-03-26T21:01:37.752Z,74.89
2023-03-26T21:04:04.427Z,74.81
2023-03-26T21:06:31.226Z,74.64
2023-03-26T21:08:58.306Z,74.94
2023-03-26T21:11:49.996Z,75.02
2023-03-26T21:14:24.460Z,75.00
2023-03-26T21:16:51.887Z,75.00
2023-03-26T21:19:19.031Z,75.09
2023-03-26T21:21:57.655Z,74.73
2023-03-26T21:24:33.184Z,74.46
2023-03-26T21:27:37.901Z,74.73
2023-03-26T21:30:10.500Z,74.74
2023-03-26T21:32:37.256Z,74.49
2023-03-26T21:35:04.624Z,74.52
2023-03-26T21:37:31.509Z,74.80
2023-03-26T21:39:59.864Z,74.61
2023-03-26T21:42:29.238Z,74.49
2023-03-26T21:44:56.043Z,74.78
2023-03-26T21:47:23.075Z,74.63
2023-03-26T21:49:50.675Z,74.13
2023-03-26T21:52:17.583Z,73.89
2023-03-26T21:54:44.456Z,74.18
2023-03-26T21:57:26.183Z,73.66
2023-03-26T22:00:11.427Z,73.80
2023-03-26T22:03:10.351Z,73.33
2023-03-26T22:05:50.795Z,73.55
2023-03-26T22:08:29.976Z,73.40
2023-03-26T22:10:57.090Z,73.20
2023-03-26T22:13:24.506Z,72.82
2023-03-26T22:15:51.030Z,73.07
2023-03-26T22:18:21.450Z,72.96
2023-03-26T22:20:49.003Z,72.87
2023-03-26T22:23:16.846Z,72.79
2023-03-26T22:25:46.260Z,73.10
2023-03-26T22:28:12.711Z,73.04
2023-03-26T22:30:39.618Z,73.21
2023-03-26T22:33:10.885Z,73.12
2023-03-26T22:35:44.545Z,73.30
2023-03-26T22:38:11.782Z,73.13
2023-03-26T22:40:38.929Z,72.88
2023-03-26T22:43:05.519Z,73.19
2023-03-26T22:45:32.561Z,72.99
2023-03-26T22:48:03.812Z,73.15
2023-03-26T22:50:31.947Z,72.99
2023-03-26T22:52:58.547Z,72.74
2023-03-26T22:55:29.017Z,73.11
2023-03-26T22:57:56.888Z,72.95
2023-03-26T23:00:23.655Z,72.89
2023-03-26T23:02:50.178Z,73.08
2023-03-26T23:05:17.640Z,72.66
2023-03-26T23:07:46.157Z,72.57
2023-03-26T23:10:13.790Z,72.44
2023-03-26T23:12:41.855Z,72.61
2023-03-26T23:15:09.743Z,72.72
2023-03-26T23:17:38.679Z,72.40
2023-03-26T23:20:13.561Z,72.53
2023-03-26T23:22:40.828Z,72.37
2023-03-26T23:25:07.776Z,72.04
2023-03-26T23:27:35.735Z,72.43
2023-03-26T23:30:04.197Z,72.19
2023-03-26T23:32:31.446Z,71.94
2023-03-26T23:34:57.978Z,71.76
2023-03-26T23:37:24.632Z,72.12
2023-03-26T23:39:51.994Z,71.73
2023-03-26T23:42:29.167Z,71.87
2023-03-26T23:44:57.323Z,71.25
2023-03-26T23:47:24.508Z,70.92
2023-03-26T23:49:51.193Z,70.58
2023-03-26T23:52:18.435Z,70.50
2023-03-26T23:54:45.738Z,70.64
2023-03-26T23:57:12.877Z,70.54
2023-03-26T23:59:41.513Z,70.69
